createdAt,value
2017-04-05T00:00:01.668Z,0
2017-04-05T00:01:02.241Z,0
2017-04-05T00:02:02.812Z,0
2017-04-05T00:03:03.385Z,0
2017-04-05T00:04:03.958Z,0
2017-04-05T00:05:04.529Z,0
2017-04-05T00:06:05.103Z,0
2017-04-05T00:07:05.676Z,0
2017-04-05T00:08:06.248Z,0
2017-04-05T00:09:06.820Z,0
2017-04-05T00:10:07.391Z,0
2017-04-05T00:11:07.969Z,0
2017-04-05T00:12:08.536Z,0
2017-04-05T00:13:09.307Z,0
2017-04-05T00:14:09.883Z,0
2017-04-05T00:15:10.455Z,0
2017-04-05T00:16:11.026Z,0
2017-04-05T00:17:11.600Z,0
2017-04-05T00:18:12.172Z,0
2017-04-05T00:19:12.744Z,0
2017-04-05T00:20:13.314Z,0
2017-04-05T00:21:13.886Z,0
2017-04-05T00:22:14.458Z,0
2017-04-05T00:23:15.032Z,0
2017-04-05T00:24:15.601Z,0
2017-04-05T00:25:16.174Z,0
2017-04-05T00:26:16.745Z,0
2017-04-05T00:27:17.317Z,0
2017-04-05T00:28:17.890Z,0
2017-04-05T00:29:18.462Z,0
2017-04-05T00:30:19.034Z,0
2017-04-05T00:31:19.607Z,0
2017-04-05T00:32:20.193Z,0
2017-04-05T00:33:20.966Z,0
2017-04-05T00:34:21.540Z,0
2017-04-05T00:35:22.106Z,0
2017-04-05T00:36:22.678Z,0
2017-04-05T00:37:23.251Z,0
2017-04-05T00:38:23.823Z,0
2017-04-05T00:39:24.395Z,0
2017-04-05T00:40:24.965Z,0
2017-04-05T00:41:25.542Z,0
2017-04-05T00:42:26.109Z,0
2017-04-05T00:43:26.882Z,0
2017-04-05T00:44:27.454Z,0
2017-04-05T00:45:28.026Z,0
2017-04-05T00:46:28.597Z,0
2017-04-05T00:47:29.168Z,0
2017-04-05T00:48:29.740Z,0
2017-04-05T00:49:30.310Z,0
2017-04-05T00:50:30.890Z,0
2017-04-05T00:51:31.454Z,0
2017-04-05T00:52:32.027Z,0
2017-04-05T00:53:32.600Z,0
2017-04-05T00:54:33.170Z,0
2017-04-05T00:55:33.742Z,0
2017-04-05T00:56:34.313Z,0
2017-04-05T00:57:34.883Z,0
2017-04-05T00:58:35.657Z,0
2017-04-05T00:59:36.227Z,0
2017-04-05T01:00:36.798Z,0
2017-04-05T01:01:37.370Z,0
2017-04-05T01:02:37.958Z,0
2017-04-05T01:03:38.531Z,0
2017-04-05T01:04:39.103Z,0
2017-04-05T01:05:39.674Z,0
2017-04-05T01:06:40.245Z,0
2017-04-05T01:07:40.816Z,0
2017-04-05T01:08:41.394Z,0
2017-04-05T01:09:41.960Z,0
2017-04-05T01:10:42.531Z,0
2017-04-05T01:11:43.104Z,0
2017-04-05T01:12:43.677Z,0
2017-04-05T01:13:44.450Z,0
2017-04-05T01:14:45.021Z,0
2017-04-05T01:15:45.608Z,0
2017-04-05T01:16:46.182Z,0
2017-04-05T01:17:46.768Z,0
2017-04-05T01:18:47.352Z,0
2017-04-05T01:19:47.921Z,0
2017-04-05T01:20:48.492Z,0
2017-04-05T01:21:49.062Z,0
2017-04-05T01:22:49.631Z,0
2017-04-05T01:23:50.199Z,0
2017-04-05T01:24:50.768Z,0
2017-04-05T01:25:51.338Z,0
2017-04-05T01:26:51.908Z,0
2017-04-05T01:27:52.478Z,0
2017-04-05T01:28:53.248Z,0
2017-04-05T01:29:53.820Z,0
2017-04-05T01:30:54.400Z,0
2017-04-05T01:31:54.973Z,0
2017-04-05T01:32:55.538Z,0
2017-04-05T01:33:56.108Z,0
2017-04-05T01:34:56.691Z,0
2017-04-05T01:35:57.260Z,0
2017-04-05T01:36:57.828Z,0
2017-04-05T01:37:58.399Z,0
2017-04-05T01:44:00.797Z,0
2017-04-05T01:45:01.368Z,0
2017-04-05T01:46:01.937Z,0
2017-04-05T01:47:02.508Z,0
2017-04-05T01:48:03.077Z,0
2017-04-05T01:49:03.660Z,0
2017-04-05T01:50:04.230Z,0
2017-04-05T01:51:04.798Z,0
2017-04-05T01:52:05.381Z,0
2017-04-05T01:53:06.152Z,0
2017-04-05T01:54:06.721Z,0
2017-04-05T01:55:07.291Z,0
2017-04-05T01:56:07.859Z,0
2017-04-05T01:57:08.430Z,0
2017-04-05T01:58:08.998Z,0
2017-04-05T01:59:09.567Z,0
2017-04-05T02:00:10.138Z,0
2017-04-05T02:01:10.704Z,0
2017-04-05T02:02:11.273Z,0
2017-04-05T02:03:11.840Z,0
2017-04-05T02:04:12.407Z,0
2017-04-05T02:05:12.975Z,0
2017-04-05T02:06:13.545Z,0
2017-04-05T02:07:14.114Z,0
2017-04-05T02:08:14.885Z,0
2017-04-05T02:09:15.453Z,0
2017-04-05T02:10:16.039Z,0
2017-04-05T02:11:16.621Z,0
2017-04-05T02:12:17.190Z,0
2017-04-05T02:13:17.760Z,0
2017-04-05T02:14:18.329Z,0
2017-04-05T02:15:18.897Z,0
2017-04-05T02:16:19.465Z,0
2017-04-05T02:17:20.037Z,0
2017-04-05T02:18:20.709Z,0
2017-04-05T02:19:21.279Z,0
2017-04-05T02:20:21.849Z,0
2017-04-05T02:21:22.421Z,0
2017-04-05T02:22:22.992Z,0
2017-04-05T02:23:23.562Z,0
2017-04-05T02:24:24.133Z,0
2017-04-05T02:25:24.721Z,0
2017-04-05T02:26:25.292Z,0
2017-04-05T02:27:25.879Z,0
2017-04-05T02:28:26.450Z,0
2017-04-05T02:29:27.022Z,0
2017-04-05T02:30:27.592Z,0
2017-04-05T02:31:28.165Z,0
2017-04-05T02:32:28.737Z,0
2017-04-05T02:33:29.307Z,0
2017-04-05T02:34:29.878Z,0
2017-04-05T02:35:30.448Z,0
2017-04-05T02:36:31.033Z,0
2017-04-05T02:37:31.603Z,0
2017-04-05T02:38:32.173Z,0
2017-04-05T02:39:32.746Z,0
2017-04-05T02:40:33.316Z,0
2017-04-05T02:41:33.885Z,0
2017-04-05T02:42:34.456Z,0
2017-04-05T02:43:35.026Z,0
2017-04-05T02:44:35.602Z,0
2017-04-05T02:45:36.170Z,0
2017-04-05T02:46:36.740Z,0
2017-04-05T02:47:37.316Z,0
2017-04-05T02:48:37.880Z,0
2017-04-05T02:49:38.451Z,0
2017-04-05T02:50:39.021Z,0
2017-04-05T02:51:39.591Z,0
2017-04-05T02:52:40.160Z,0
2017-04-05T02:53:40.729Z,0
2017-04-05T02:54:41.298Z,0
2017-04-05T02:55:41.870Z,0
2017-04-05T02:56:42.440Z,0
2017-04-05T02:57:43.009Z,0
2017-04-05T02:58:43.580Z,0
2017-04-05T02:59:44.149Z,0
2017-04-05T03:00:44.717Z,0
2017-04-05T03:01:45.287Z,0
2017-04-05T03:02:45.858Z,0
2017-04-05T03:03:46.427Z,0
2017-04-05T03:04:46.997Z,0
2017-04-05T03:05:47.567Z,0
2017-04-05T03:06:48.135Z,0
2017-04-05T03:07:48.705Z,0
2017-04-05T03:08:49.275Z,0
2017-04-05T03:09:49.846Z,0
2017-04-05T03:10:50.416Z,0
2017-04-05T03:11:51.001Z,0
2017-04-05T03:12:51.570Z,0
2017-04-05T03:13:52.154Z,0
2017-04-05T03:14:52.726Z,0
2017-04-05T03:15:53.295Z,0
2017-04-05T03:16:53.880Z,0
2017-04-05T03:17:54.450Z,0
2017-04-05T03:18:55.019Z,0
2017-04-05T03:19:55.604Z,0
2017-04-05T03:20:56.173Z,0
2017-04-05T03:21:56.744Z,0
2017-04-05T03:22:57.314Z,0
2017-04-05T03:23:57.885Z,0
2017-04-05T03:24:58.454Z,0
2017-04-05T03:25:59.025Z,0
2017-04-05T03:26:59.594Z,0
2017-04-05T03:28:00.165Z,0
2017-04-05T03:29:00.737Z,0
2017-04-05T03:30:01.309Z,0
2017-04-05T03:31:01.879Z,0
2017-04-05T03:32:02.449Z,0
2017-04-05T03:33:03.020Z,0
2017-04-05T03:34:03.591Z,0
2017-04-05T03:35:04.178Z,0
2017-04-05T03:36:04.747Z,0
2017-04-05T03:37:05.319Z,0
2017-04-05T03:38:05.887Z,0
2017-04-05T03:39:06.458Z,0
2017-04-05T03:40:07.030Z,0
2017-04-05T03:41:07.618Z,0
2017-04-05T03:42:08.187Z,0
2017-04-05T03:43:08.773Z,0
2017-04-05T03:44:09.345Z,0
2017-04-05T03:45:09.915Z,0
2017-04-05T03:46:10.485Z,0
2017-04-05T03:47:11.058Z,0
2017-04-05T03:48:11.628Z,0
2017-04-05T03:49:12.203Z,0
2017-04-05T03:50:12.771Z,0
2017-04-05T03:51:13.344Z,0
2017-04-05T03:52:13.915Z,0
2017-04-05T03:53:14.485Z,0
2017-04-05T03:54:15.054Z,0
2017-04-05T03:55:15.625Z,0
2017-04-05T03:56:16.196Z,0
2017-04-05T03:57:16.769Z,0
2017-04-05T03:58:17.339Z,0
2017-04-05T03:59:17.909Z,0
2017-04-05T04:00:18.480Z,0
2017-04-05T04:01:19.066Z,0
2017-04-05T04:02:19.637Z,0
2017-04-05T04:03:20.209Z,0
2017-04-05T04:04:20.795Z,0
2017-04-05T04:05:21.365Z,0
2017-04-05T04:06:21.937Z,0
2017-04-05T04:07:22.506Z,0
2017-04-05T04:08:23.075Z,0
2017-04-05T04:09:23.648Z,0
2017-04-05T04:10:24.233Z,0
2017-04-05T04:11:24.803Z,0
2017-04-05T04:12:25.376Z,0
2017-04-05T04:13:25.942Z,0
2017-04-05T04:14:26.512Z,0
2017-04-05T04:15:27.083Z,0
2017-04-05T04:16:27.655Z,0
2017-04-05T04:17:28.230Z,0
2017-04-05T04:18:28.795Z,0
2017-04-05T04:19:29.366Z,0
2017-04-05T04:20:29.937Z,0
2017-04-05T04:21:30.507Z,0
2017-04-05T04:22:31.079Z,0
2017-04-05T04:23:31.647Z,0
2017-04-05T04:24:32.221Z,4
2017-04-05T04:25:32.788Z,4
2017-04-05T04:26:33.359Z,0
2017-04-05T04:27:33.930Z,4
2017-04-05T04:28:34.499Z,4
2017-04-05T04:29:35.070Z,4
2017-04-05T04:30:35.642Z,4
2017-04-05T04:31:36.212Z,4
2017-04-05T04:32:36.783Z,8
2017-04-05T04:33:37.354Z,8
2017-04-05T04:34:37.925Z,8
2017-04-05T04:35:38.497Z,8
2017-04-05T04:36:39.068Z,12
2017-04-05T04:37:39.638Z,16
2017-04-05T04:38:40.214Z,16
2017-04-05T04:39:40.798Z,20
2017-04-05T04:40:41.371Z,20
2017-04-05T04:41:41.943Z,24
2017-04-05T04:42:42.514Z,28
2017-04-05T04:43:43.086Z,28
2017-04-05T04:44:43.658Z,32
2017-04-05T04:45:44.228Z,36
2017-04-05T04:46:44.800Z,40
2017-04-05T04:47:45.385Z,44
2017-04-05T04:48:45.956Z,48
2017-04-05T04:49:46.528Z,56
2017-04-05T04:50:47.102Z,56
2017-04-05T04:51:47.673Z,60
2017-04-05T04:52:48.249Z,64
2017-04-05T04:53:48.820Z,68
2017-04-05T04:54:49.408Z,76
2017-04-05T04:55:49.994Z,84
2017-04-05T04:56:50.566Z,96
2017-04-05T04:57:51.137Z,104
2017-04-05T04:58:51.711Z,116
2017-04-05T04:59:52.284Z,132
2017-04-05T05:00:52.855Z,144
2017-04-05T05:01:53.429Z,152
2017-04-05T05:02:54.001Z,168
2017-04-05T05:03:54.575Z,188
2017-04-05T05:04:55.163Z,208
2017-04-05T05:05:55.737Z,232
2017-04-05T05:06:56.311Z,260
2017-04-05T05:07:56.883Z,304
2017-04-05T05:08:57.461Z,360
2017-04-05T05:09:58.048Z,420
2017-04-05T05:10:58.623Z,488
2017-04-05T05:11:59.196Z,556
2017-04-05T05:12:59.773Z,600
2017-04-05T05:14:00.346Z,644
2017-04-05T05:15:00.920Z,688
2017-04-05T05:16:01.495Z,732
2017-04-05T05:17:02.085Z,776
2017-04-05T05:18:02.659Z,824
2017-04-05T05:19:03.234Z,868
2017-04-05T05:20:03.809Z,908
2017-04-05T05:21:04.382Z,948
2017-04-05T05:22:04.957Z,980
2017-04-05T05:23:05.532Z,1012
2017-04-05T05:24:06.128Z,1044
2017-04-05T05:25:06.698Z,1076
2017-04-05T05:26:07.275Z,1104
2017-04-05T05:27:07.847Z,1132
2017-04-05T05:28:08.426Z,1160
2017-04-05T05:29:08.996Z,1184
2017-04-05T05:30:09.570Z,1192
2017-04-05T05:31:10.146Z,1192
2017-04-05T05:32:10.719Z,1204
2017-04-05T05:33:11.294Z,1236
2017-04-05T05:34:11.870Z,1280
2017-04-05T05:35:12.442Z,1328
2017-04-05T05:36:13.016Z,1372
2017-04-05T05:37:13.591Z,1424
2017-04-05T05:38:14.166Z,1464
2017-04-05T05:39:14.739Z,1500
2017-04-05T05:40:15.314Z,1540
2017-04-05T05:41:15.888Z,1600
2017-04-05T05:42:16.464Z,1696
2017-04-05T05:43:17.039Z,1808
2017-04-05T05:44:17.616Z,1904
2017-04-05T05:45:18.191Z,1980
2017-04-05T05:46:18.765Z,2028
2017-04-05T05:47:19.342Z,2048
2017-04-05T05:48:19.919Z,1988
2017-04-05T05:49:20.493Z,1836
2017-04-05T05:50:21.068Z,1696
2017-04-05T05:51:21.643Z,1628
2017-04-05T05:52:22.218Z,1564
2017-04-05T05:53:22.793Z,1540
2017-04-05T05:54:23.371Z,1592
2017-04-05T05:55:23.945Z,1704
2017-04-05T05:56:24.519Z,1856
2017-04-05T05:57:25.096Z,1980
2017-04-05T05:58:25.686Z,2068
2017-04-05T05:59:26.260Z,2168
2017-04-05T06:00:26.837Z,2296
2017-04-05T06:01:27.413Z,2412
2017-04-05T06:02:27.990Z,2576
2017-04-05T06:03:28.564Z,2828
2017-04-05T06:04:29.139Z,2940
2017-04-05T06:05:29.717Z,3092
2017-04-05T06:06:30.294Z,3272
2017-04-05T06:07:30.871Z,3460
2017-04-05T06:08:31.449Z,3608
2017-04-05T06:09:32.027Z,3724
2017-04-05T06:10:32.603Z,3828
2017-04-05T06:11:33.180Z,3948
2017-04-05T06:12:33.759Z,4124
2017-04-05T06:13:34.335Z,4196
2017-04-05T06:14:34.912Z,4148
2017-04-05T06:15:35.488Z,4176
2017-04-05T06:16:36.079Z,4272
2017-04-05T06:17:36.659Z,4136
2017-04-05T06:18:37.235Z,4040
2017-04-05T06:19:37.813Z,3992
2017-04-05T06:20:38.389Z,4068
2017-04-05T06:21:38.968Z,3940
2017-04-05T06:22:39.544Z,3816
2017-04-05T06:23:40.122Z,3872
2017-04-05T06:24:40.701Z,4068
2017-04-05T06:25:41.281Z,4356
2017-04-05T06:26:41.876Z,4652
2017-04-05T06:27:42.452Z,4840
2017-04-05T06:28:43.029Z,5012
2017-04-05T06:29:43.608Z,5388
2017-04-05T06:30:44.186Z,5464
2017-04-05T06:31:44.763Z,5384
2017-04-05T06:32:45.339Z,5240
2017-04-05T06:33:45.923Z,5108
2017-04-05T06:34:46.499Z,4996
2017-04-05T06:35:47.075Z,4796
2017-04-05T06:36:47.656Z,4680
2017-04-05T06:37:48.246Z,4648
2017-04-05T06:38:48.839Z,4540
2017-04-05T06:39:49.418Z,4468
2017-04-05T06:40:50.000Z,4444
2017-04-05T06:41:50.591Z,4496
2017-04-05T06:42:51.166Z,4552
2017-04-05T06:43:51.746Z,4600
2017-04-05T06:44:52.322Z,4596
2017-04-05T06:45:52.900Z,4588
2017-04-05T06:46:53.478Z,4612
2017-04-05T06:47:54.055Z,4496
2017-04-05T06:48:54.634Z,4384
2017-04-05T06:49:55.211Z,4312
2017-04-05T06:50:55.789Z,4448
2017-04-05T06:51:56.366Z,4660
2017-04-05T06:52:56.945Z,4580
2017-04-05T06:53:57.522Z,4440
2017-04-05T06:54:58.098Z,4132
2017-04-05T06:55:58.677Z,3816
2017-04-05T06:56:59.254Z,3600
2017-04-05T06:57:59.832Z,3476
2017-04-05T06:59:00.410Z,3396
2017-04-05T07:00:00.989Z,3312
2017-04-05T07:01:01.571Z,3304
2017-04-05T07:02:02.145Z,3240
2017-04-05T07:03:02.724Z,3160
2017-04-05T07:04:03.302Z,3048
2017-04-05T07:05:03.879Z,2968
2017-04-05T07:06:04.472Z,2992
2017-04-05T07:07:05.049Z,3092
2017-04-05T07:08:05.641Z,3176
2017-04-05T07:09:06.220Z,3124
2017-04-05T07:10:06.796Z,2796
2017-04-05T07:11:07.372Z,2468
2017-04-05T07:12:07.965Z,2164
2017-04-05T07:13:08.541Z,1976
2017-04-05T07:14:09.119Z,2036
2017-04-05T07:15:09.703Z,2460
2017-04-05T07:16:10.272Z,2836
2017-04-05T07:17:10.852Z,3356
2017-04-05T07:18:11.430Z,3372
2017-04-05T07:19:12.007Z,3124
2017-04-05T07:20:12.584Z,3452
2017-04-05T07:21:13.163Z,3684
2017-04-05T07:22:13.741Z,3764
2017-04-05T07:23:14.319Z,3852
2017-04-05T07:24:14.897Z,3976
2017-04-05T07:25:15.478Z,3776
2017-04-05T07:26:16.071Z,3924
2017-04-05T07:27:16.649Z,3932
2017-04-05T07:28:17.226Z,3600
2017-04-05T07:29:17.805Z,4208
2017-04-05T07:30:18.383Z,5176
2017-04-05T07:31:18.959Z,5884
2017-04-05T07:32:19.539Z,6312
2017-04-05T07:33:20.131Z,7032
2017-04-05T07:34:20.710Z,7212
2017-04-05T07:35:21.290Z,7452
2017-04-05T07:36:21.884Z,8024
2017-04-05T07:37:22.461Z,8676
2017-04-05T07:38:23.038Z,8624
2017-04-05T07:39:23.616Z,8844
2017-04-05T07:40:24.196Z,9068
2017-04-05T07:41:24.772Z,9216
2017-04-05T07:42:25.349Z,9576
2017-04-05T07:43:25.929Z,10152
2017-04-05T07:44:26.509Z,10592
2017-04-05T07:45:27.088Z,10860
2017-04-05T07:46:27.666Z,11256
2017-04-05T07:47:28.247Z,11276
2017-04-05T07:48:28.826Z,11084
2017-04-05T07:49:29.406Z,10928
2017-04-05T07:50:29.985Z,10884
2017-04-05T07:51:30.570Z,10592
2017-04-05T07:52:31.149Z,10204
2017-04-05T07:53:31.726Z,9800
2017-04-05T07:54:32.305Z,9508
2017-04-05T07:55:32.887Z,9244
2017-04-05T07:56:33.464Z,9216
2017-04-05T07:57:34.043Z,9144
2017-04-05T07:58:34.624Z,9124
2017-04-05T07:59:35.202Z,9036
2017-04-05T08:00:35.780Z,8692
2017-04-05T08:01:36.360Z,8496
2017-04-05T08:02:36.940Z,8364
2017-04-05T08:03:37.519Z,8192
2017-04-05T08:04:38.098Z,7732
2017-04-05T08:05:38.678Z,7140
2017-04-05T08:06:39.257Z,6448
2017-04-05T08:07:39.835Z,5820
2017-04-05T08:08:40.415Z,5468
2017-04-05T08:09:40.995Z,5340
2017-04-05T08:10:41.573Z,5088
2017-04-05T08:11:42.158Z,4996
2017-04-05T08:12:42.733Z,5100
2017-04-05T08:13:43.314Z,5576
2017-04-05T08:14:43.892Z,6120
2017-04-05T08:15:44.469Z,6464
2017-04-05T08:16:45.050Z,6384
2017-04-05T08:17:45.632Z,5988
2017-04-05T08:18:46.222Z,5692
2017-04-05T08:19:46.802Z,5804
2017-04-05T08:20:47.380Z,6056
2017-04-05T08:21:47.961Z,6148
2017-04-05T08:22:48.539Z,6036
2017-04-05T08:23:49.120Z,6464
2017-04-05T08:24:49.698Z,6948
2017-04-05T08:25:50.280Z,6876
2017-04-05T08:26:50.856Z,6644
2017-04-05T08:27:51.436Z,6360
2017-04-05T08:28:52.015Z,5504
2017-04-05T08:29:52.593Z,5424
2017-04-05T08:30:53.173Z,5780
2017-04-05T08:31:53.753Z,6116
2017-04-05T08:32:54.333Z,6080
2017-04-05T08:33:54.911Z,6424
2017-04-05T08:34:55.490Z,6400
2017-04-05T08:35:56.070Z,6272
2017-04-05T08:36:56.647Z,6040
2017-04-05T08:37:57.225Z,6168
2017-04-05T08:38:57.805Z,6312
2017-04-05T08:39:58.384Z,6456
2017-04-05T08:40:58.964Z,6768
2017-04-05T08:41:59.542Z,7264
2017-04-05T08:43:00.122Z,7760
2017-04-05T08:44:00.701Z,7724
2017-04-05T08:45:01.279Z,7868
2017-04-05T08:46:01.857Z,8024
2017-04-05T08:47:02.437Z,8156
2017-04-05T08:48:03.015Z,8068
2017-04-05T08:49:03.595Z,7976
2017-04-05T08:50:04.176Z,7836
2017-04-05T08:51:04.758Z,7664
2017-04-05T08:52:05.335Z,7696
2017-04-05T08:53:05.913Z,7540
2017-04-05T08:54:06.493Z,7352
2017-04-05T08:55:07.072Z,7196
2017-04-05T08:56:07.653Z,7124
2017-04-05T08:57:08.233Z,7216
2017-04-05T08:58:08.813Z,7340
2017-04-05T08:59:09.393Z,7368
2017-04-05T09:00:09.972Z,7348
2017-04-05T09:01:10.553Z,7152
2017-04-05T09:02:11.132Z,6884
2017-04-05T09:03:11.711Z,6764
2017-04-05T09:04:12.307Z,6652
2017-04-05T09:05:12.886Z,6576
2017-04-05T09:06:13.467Z,6472
2017-04-05T09:07:14.045Z,6428
2017-04-05T09:08:14.624Z,6508
2017-04-05T09:09:15.202Z,6860
2017-04-05T09:10:15.784Z,7064
2017-04-05T09:11:16.362Z,7300
2017-04-05T09:12:16.943Z,7560
2017-04-05T09:13:17.523Z,7696
2017-04-05T09:14:18.102Z,7756
2017-04-05T09:15:18.680Z,7592
2017-04-05T09:16:19.259Z,7404
2017-04-05T09:17:19.853Z,7392
2017-04-05T09:18:20.433Z,7480
2017-04-05T09:19:21.028Z,7520
2017-04-05T09:20:21.624Z,7492
2017-04-05T09:21:22.205Z,7540
2017-04-05T09:22:22.785Z,7708
2017-04-05T09:23:23.364Z,7912
2017-04-05T09:24:23.945Z,8232
2017-04-05T09:25:24.524Z,8568
2017-04-05T09:26:25.104Z,8844
2017-04-05T09:27:25.700Z,9292
2017-04-05T09:28:26.280Z,9552
2017-04-05T09:29:26.860Z,9796
2017-04-05T09:30:27.441Z,9976
2017-04-05T09:31:28.023Z,10100
2017-04-05T09:32:28.621Z,10104
2017-04-05T09:33:29.201Z,10072
2017-04-05T09:34:29.779Z,9968
2017-04-05T09:35:30.359Z,9872
2017-04-05T09:36:30.939Z,9788
2017-04-05T09:37:31.520Z,9744
2017-04-05T09:38:32.102Z,9664
2017-04-05T09:39:32.683Z,9440
2017-04-05T09:40:33.262Z,9268
2017-04-05T09:41:33.842Z,9136
2017-04-05T09:42:34.428Z,8952
2017-04-05T09:43:35.004Z,8840
2017-04-05T09:44:35.584Z,8748
2017-04-05T09:45:36.165Z,8468
2017-04-05T09:46:36.746Z,8360
2017-04-05T09:47:37.325Z,8308
2017-04-05T09:48:37.906Z,8168
2017-04-05T09:49:38.488Z,7924
2017-04-05T09:50:39.068Z,7720
2017-04-05T09:51:39.647Z,7496
2017-04-05T09:52:40.227Z,7328
2017-04-05T09:53:40.808Z,7208
2017-04-05T09:54:41.389Z,7088
2017-04-05T09:55:41.969Z,6844
2017-04-05T09:56:42.551Z,6660
2017-04-05T09:57:43.131Z,6588
2017-04-05T09:58:43.712Z,6580
2017-04-05T09:59:44.294Z,6676
2017-04-05T10:00:44.876Z,6128
2017-04-05T10:01:45.457Z,6684
2017-04-05T10:02:46.038Z,6992
2017-04-05T10:03:46.616Z,7372
2017-04-05T10:04:47.197Z,6996
2017-04-05T10:05:47.777Z,6952
2017-04-05T10:06:48.357Z,7200
2017-04-05T10:07:48.938Z,6288
2017-04-05T10:08:49.519Z,6512
2017-04-05T10:09:50.099Z,7628
2017-04-05T10:10:50.680Z,7808
2017-04-05T10:11:51.263Z,6940
2017-04-05T10:12:51.842Z,5776
2017-04-05T10:13:52.421Z,5020
2017-04-05T10:14:53.002Z,5260
2017-04-05T10:15:53.584Z,5356
2017-04-05T10:16:54.164Z,6460
2017-04-05T10:17:54.745Z,7340
2017-04-05T10:18:55.325Z,6752
2017-04-05T10:19:55.907Z,6332
2017-04-05T10:20:56.486Z,4608
2017-04-05T10:21:57.066Z,4012
2017-04-05T10:22:57.648Z,3924
2017-04-05T10:23:58.228Z,4024
2017-04-05T10:24:58.809Z,4332
2017-04-05T10:25:59.390Z,4692
2017-04-05T10:26:59.972Z,3864
2017-04-05T10:28:00.552Z,3560
2017-04-05T10:29:01.134Z,3540
2017-04-05T10:30:01.718Z,3712
2017-04-05T10:31:02.296Z,3868
2017-04-05T10:32:02.891Z,3868
2017-04-05T10:33:03.476Z,3788
2017-04-05T10:34:04.051Z,3656
2017-04-05T10:35:04.631Z,3608
2017-04-05T10:36:05.213Z,3640
2017-04-05T10:37:05.793Z,3968
2017-04-05T10:38:06.370Z,4296
2017-04-05T10:39:06.958Z,4560
2017-04-05T10:40:07.532Z,4864
2017-04-05T10:41:08.115Z,4652
2017-04-05T10:42:08.712Z,4756
2017-04-05T10:43:09.293Z,4856
2017-04-05T10:44:09.874Z,5540
2017-04-05T10:45:10.457Z,6076
2017-04-05T10:46:11.036Z,5868
2017-04-05T10:47:11.615Z,6212
2017-04-05T10:48:12.196Z,7272
2017-04-05T10:49:12.775Z,9044
2017-04-05T10:50:13.355Z,9700
2017-04-05T10:51:13.938Z,10760
2017-04-05T10:52:14.520Z,8904
2017-04-05T10:53:15.099Z,7000
2017-04-05T10:54:15.680Z,6592
2017-04-05T10:55:16.261Z,4728
2017-04-05T10:56:16.844Z,4224
2017-04-05T10:57:17.423Z,4468
2017-04-05T10:58:18.008Z,4576
2017-04-05T10:59:18.585Z,4928
2017-04-05T11:00:19.165Z,5344
2017-04-05T11:01:19.762Z,5308
2017-04-05T11:02:20.341Z,5524
2017-04-05T11:03:20.921Z,4560
2017-04-05T11:04:21.502Z,4080
2017-04-05T11:05:22.082Z,4104
2017-04-05T11:06:22.678Z,4520
2017-04-05T11:07:23.259Z,4924
2017-04-05T11:08:23.839Z,5508
2017-04-05T11:09:24.423Z,6352
2017-04-05T11:10:25.002Z,7540
2017-04-05T11:11:25.583Z,9880
2017-04-05T11:12:26.165Z,11604
2017-04-05T11:13:26.750Z,11448
2017-04-05T11:14:27.330Z,10284
2017-04-05T11:15:27.925Z,8748
2017-04-05T11:16:28.507Z,7672
2017-04-05T11:17:29.087Z,7420
2017-04-05T11:18:29.669Z,6916
2017-04-05T11:19:30.250Z,6696
2017-04-05T11:20:30.830Z,6996
2017-04-05T11:21:31.428Z,6688
2017-04-05T11:22:32.008Z,5516
2017-04-05T11:23:32.589Z,4252
2017-04-05T11:24:33.170Z,4004
2017-04-05T11:25:33.752Z,4156
2017-04-05T11:26:34.334Z,4344
2017-04-05T11:27:34.937Z,4764
2017-04-05T11:28:35.494Z,5232
2017-04-05T11:29:36.078Z,6044
2017-04-05T11:30:36.657Z,6856
2017-04-05T11:31:37.237Z,8148
2017-04-05T11:32:37.819Z,10252
2017-04-05T11:33:38.401Z,11412
2017-04-05T11:34:39.001Z,11164
2017-04-05T11:35:39.580Z,10520
2017-04-05T11:36:40.162Z,8512
2017-04-05T11:37:40.741Z,7700
2017-04-05T11:38:41.323Z,6572
2017-04-05T11:39:41.905Z,5712
2017-04-05T11:40:42.485Z,5780
2017-04-05T11:41:43.067Z,7016
2017-04-05T11:42:43.648Z,8956
2017-04-05T11:43:44.244Z,9100
2017-04-05T11:44:44.825Z,8476
2017-04-05T11:45:45.407Z,7972
2017-04-05T11:46:45.987Z,8020
2017-04-05T11:47:46.582Z,8220
2017-04-05T11:48:47.173Z,7660
2017-04-05T11:49:47.746Z,7292
2017-04-05T11:50:48.342Z,8588
2017-04-05T11:51:48.921Z,8840
2017-04-05T11:52:49.503Z,8140
2017-04-05T11:53:50.088Z,7912
2017-04-05T11:54:50.682Z,8180
2017-04-05T11:55:51.264Z,8860
2017-04-05T11:56:51.846Z,9400
2017-04-05T11:57:52.429Z,11544
2017-04-05T11:58:53.011Z,10700
2017-04-05T11:59:53.592Z,10072
2017-04-05T12:00:54.175Z,10008
2017-04-05T12:01:54.756Z,9912
2017-04-05T12:02:55.340Z,10236
2017-04-05T12:03:55.920Z,9604
2017-04-05T12:04:56.504Z,8688
2017-04-05T12:05:57.085Z,7264
2017-04-05T12:06:57.668Z,6852
2017-04-05T12:07:58.248Z,7188
2017-04-05T12:08:58.830Z,7068
2017-04-05T12:09:59.412Z,7728
2017-04-05T12:10:59.997Z,9048
2017-04-05T12:12:00.591Z,10084
2017-04-05T12:13:01.173Z,11168
2017-04-05T12:14:01.754Z,11952
2017-04-05T12:15:02.339Z,13152
2017-04-05T12:16:02.921Z,14620
2017-04-05T12:17:03.504Z,14844
2017-04-05T12:18:04.086Z,15236
2017-04-05T12:19:04.669Z,13236
2017-04-05T12:20:05.251Z,12144
2017-04-05T12:21:05.849Z,12500
2017-04-05T12:22:06.433Z,12920
2017-04-05T12:23:07.016Z,13052
2017-04-05T12:24:07.614Z,14420
2017-04-05T12:25:08.197Z,15076
2017-04-05T12:26:08.781Z,13104
2017-04-05T12:27:09.363Z,10132
2017-04-05T12:28:09.946Z,8120
2017-04-05T12:29:10.528Z,7240
2017-04-05T12:30:11.110Z,6976
2017-04-05T12:31:11.691Z,7796
2017-04-05T12:32:12.274Z,9268
2017-04-05T12:33:12.858Z,8032
2017-04-05T12:34:13.440Z,7376
2017-04-05T12:35:14.038Z,6552
2017-04-05T12:36:14.620Z,6104
2017-04-05T12:37:15.203Z,6376
2017-04-05T12:38:15.786Z,8044
2017-04-05T12:39:16.367Z,7320
2017-04-05T12:40:16.959Z,7024
2017-04-05T12:41:17.531Z,7060
2017-04-05T12:42:18.115Z,6864
2017-04-05T12:44:43.336Z,7396
2017-04-05T12:45:43.919Z,8536
2017-04-05T12:46:44.500Z,9712
2017-04-05T12:47:45.087Z,10764
2017-04-05T12:48:45.668Z,9856
2017-04-05T12:49:46.266Z,8188
2017-04-05T12:50:46.847Z,7312
2017-04-05T12:51:47.429Z,7268
2017-04-05T12:52:48.012Z,7516
2017-04-05T12:53:48.594Z,7824
2017-04-05T12:54:49.175Z,8640
2017-04-05T12:55:49.760Z,10560
2017-04-05T12:56:50.343Z,11392
2017-04-05T12:57:50.927Z,10884
2017-04-05T12:58:51.511Z,10408
2017-04-05T12:59:52.095Z,10968
2017-04-05T13:00:52.694Z,11344
2017-04-05T13:01:53.278Z,10796
2017-04-05T13:02:53.861Z,10832
2017-04-05T13:03:54.444Z,10588
2017-04-05T13:04:55.025Z,11280
2017-04-05T13:05:55.611Z,11260
2017-04-05T13:06:56.209Z,11608
2017-04-05T13:07:56.798Z,11700
2017-04-05T13:08:57.376Z,11396
2017-04-05T13:09:57.960Z,10808
2017-04-05T13:10:58.544Z,10004
2017-04-05T13:11:59.127Z,9244
2017-04-05T13:12:59.707Z,7692
2017-04-05T13:14:00.290Z,6784
2017-04-05T13:15:00.873Z,6024
2017-04-05T13:16:01.470Z,5924
2017-04-05T13:17:02.053Z,5752
2017-04-05T13:18:02.634Z,5364
2017-04-05T13:19:03.216Z,6044
2017-04-05T13:20:03.815Z,6876
2017-04-05T13:21:04.398Z,7804
2017-04-05T13:22:04.980Z,8064
2017-04-05T13:23:05.562Z,8000
2017-04-05T13:24:06.144Z,8956
2017-04-05T13:25:06.728Z,10220
2017-04-05T13:26:07.326Z,10724
2017-04-05T13:27:07.909Z,10552
2017-04-05T13:28:08.491Z,10360
2017-04-05T13:29:09.073Z,9356
2017-04-05T13:30:09.657Z,9540
2017-04-05T13:31:10.236Z,9036
2017-04-05T13:32:10.818Z,9668
2017-04-05T13:33:11.401Z,10556
2017-04-05T13:34:11.985Z,11944
2017-04-05T13:35:12.566Z,12220
2017-04-05T13:36:13.150Z,12728
2017-04-05T13:37:13.733Z,12684
2017-04-05T13:38:14.317Z,11248
2017-04-05T13:39:14.899Z,10236
2017-04-05T13:40:15.480Z,9588
2017-04-05T13:41:16.064Z,10480
2017-04-05T13:42:16.644Z,9964
2017-04-05T13:43:17.225Z,9272
2017-04-05T13:44:17.806Z,8760
2017-04-05T13:45:18.390Z,9092
2017-04-05T13:46:18.969Z,7932
2017-04-05T13:47:19.552Z,6644
2017-04-05T13:48:20.135Z,6024
2017-04-05T13:49:20.733Z,5600
2017-04-05T13:50:21.315Z,5644
2017-04-05T13:51:21.894Z,7024
2017-04-05T13:52:22.476Z,8032
2017-04-05T13:53:23.059Z,8880
2017-04-05T13:54:23.639Z,9056
2017-04-05T13:55:24.221Z,9296
2017-04-05T13:56:24.818Z,9148
2017-04-05T13:57:25.400Z,7692
2017-04-05T13:58:25.983Z,6424
2017-04-05T13:59:26.567Z,5428